createdAt,value
2022-12-18T00:00:28.047Z,61.59
2022-12-18T00:01:21.484Z,61.89
2022-12-18T00:01:55.188Z,61.74
2022-12-18T00:02:28.516Z,59.64
2022-12-18T00:03:01.737Z,58.25
2022-12-18T00:03:35.323Z,57.11
2022-12-18T00:04:09.257Z,55.30
2022-12-18T00:04:42.657Z,53.49
2022-12-18T00:05:15.694Z,52.56
2022-12-18T00:05:48.895Z,52.17
2022-12-18T00:06:22.061Z,50.95
2022-12-18T00:06:55.645Z,50.24
2022-12-18T00:07:28.796Z,50.20
2022-12-18T00:08:02.077Z,52.13
2022-12-18T00:08:35.534Z,51.44
2022-12-18T00:09:08.732Z,50.89
2022-12-18T00:09:41.834Z,51.86
2022-12-18T00:10:15.482Z,53.33
2022-12-18T00:10:48.765Z,52.57
2022-12-18T00:11:21.898Z,51.19
2022-12-18T00:11:55.083Z,51.75
2022-12-18T00:12:29.942Z,54.46
2022-12-18T00:13:06.648Z,55.42
2022-12-18T00:13:43.213Z,56.05
2022-12-18T00:14:16.373Z,58.58
2022-12-18T00:14:49.602Z,57.58
2022-12-18T00:15:22.726Z,58.52
2022-12-18T00:15:56.701Z,58.34
2022-12-18T00:16:31.289Z,57.16
2022-12-18T00:17:04.481Z,58.88
2022-12-18T00:17:37.556Z,61.59
2022-12-18T00:18:10.628Z,62.71
2022-12-18T00:18:43.877Z,62.66
2022-12-18T00:19:17.051Z,63.56
2022-12-18T00:19:50.249Z,65.06
2022-12-18T00:20:26.842Z,66.23
2022-12-18T00:21:00.159Z,66.10
2022-12-18T00:21:33.657Z,66.69
2022-12-18T00:22:07.747Z,67.71
2022-12-18T00:22:40.800Z,67.64
2022-12-18T00:23:13.714Z,68.09
2022-12-18T00:23:46.807Z,68.08
2022-12-18T00:24:20.190Z,67.82
2022-12-18T00:24:53.825Z,67.35
2022-12-18T00:25:26.967Z,67.22
2022-12-18T00:26:00.180Z,66.60
2022-12-18T00:26:33.370Z,65.49
2022-12-18T00:27:06.537Z,64.80
2022-12-18T00:27:39.654Z,64.61
2022-12-18T00:28:12.930Z,64.36
2022-12-18T00:28:46.095Z,63.64
2022-12-18T00:29:19.349Z,62.72
2022-12-18T00:29:52.367Z,62.94
2022-12-18T00:30:25.494Z,62.36
2022-12-18T00:30:58.566Z,62.39
2022-12-18T00:31:31.676Z,62.06
2022-12-18T00:32:04.874Z,61.14
2022-12-18T00:32:38.323Z,57.92
2022-12-18T00:33:11.409Z,56.13
2022-12-18T00:33:44.463Z,55.18
2022-12-18T00:34:17.521Z,53.72
2022-12-18T00:34:50.686Z,53.08
2022-12-18T00:35:23.753Z,52.44
2022-12-18T00:35:56.888Z,52.35
2022-12-18T00:36:30.196Z,51.32
2022-12-18T00:37:03.269Z,50.82
2022-12-18T00:37:36.351Z,49.90
2022-12-18T00:38:09.318Z,49.51
2022-12-18T00:38:42.406Z,51.78
2022-12-18T00:39:15.670Z,51.44
2022-12-18T00:39:49.011Z,51.29
2022-12-18T00:40:22.631Z,53.12
2022-12-18T00:40:55.749Z,51.83
2022-12-18T00:41:47.306Z,53.51
2022-12-18T00:42:38.791Z,51.59
2022-12-18T00:43:11.871Z,51.88
2022-12-18T00:43:44.945Z,52.33
2022-12-18T00:44:18.409Z,54.42
2022-12-18T00:44:51.823Z,56.37
2022-12-18T00:45:25.056Z,57.33
2022-12-18T00:45:58.280Z,58.17
2022-12-18T00:46:31.462Z,57.91
2022-12-18T00:47:04.828Z,57.40
2022-12-18T00:47:38.072Z,55.50
2022-12-18T00:48:11.674Z,53.99
2022-12-18T00:48:44.908Z,58.13
2022-12-18T00:49:19.048Z,59.99
2022-12-18T00:49:53.054Z,61.38
2022-12-18T00:50:26.287Z,59.52
2022-12-18T00:50:59.311Z,58.30
2022-12-18T00:51:32.348Z,58.74
2022-12-18T00:52:05.831Z,59.07
2022-12-18T00:52:38.956Z,61.56
2022-12-18T00:53:12.176Z,59.83
2022-12-18T00:53:45.312Z,59.41
2022-12-18T00:54:18.818Z,59.56
2022-12-18T00:54:51.872Z,59.46
2022-12-18T00:55:25.016Z,59.83
2022-12-18T00:55:58.490Z,62.08
2022-12-18T00:56:31.708Z,63.05
2022-12-18T00:57:04.759Z,62.93
2022-12-18T00:57:37.867Z,64.98
2022-12-18T00:58:11.630Z,67.73
2022-12-18T00:58:44.685Z,69.98
2022-12-18T00:59:17.863Z,71.75
2022-12-18T00:59:50.934Z,72.18
2022-12-18T01:00:24.032Z,72.53
2022-12-18T01:00:57.259Z,72.91
2022-12-18T01:01:30.783Z,73.07
2022-12-18T01:02:04.002Z,72.87
2022-12-18T01:02:37.241Z,72.71
2022-12-18T01:03:10.434Z,72.06
2022-12-18T01:03:43.755Z,71.78
2022-12-18T01:04:16.752Z,71.29
2022-12-18T01:04:49.831Z,70.61
2022-12-18T01:05:22.809Z,69.89
2022-12-18T01:05:55.762Z,69.72
2022-12-18T01:06:29.150Z,69.21
2022-12-18T01:07:02.358Z,68.57
2022-12-18T01:07:35.558Z,68.04
2022-12-18T01:08:08.746Z,68.00
2022-12-18T01:08:42.175Z,67.70
2022-12-18T01:09:15.293Z,67.64
2022-12-18T01:09:48.685Z,67.18
2022-12-18T01:10:21.732Z,67.02
2022-12-18T01:10:54.870Z,66.39
2022-12-18T01:11:27.980Z,65.72
2022-12-18T01:12:01.196Z,65.36
2022-12-18T01:12:34.241Z,65.14
2022-12-18T01:13:07.330Z,64.17
2022-12-18T01:13:40.902Z,64.15
2022-12-18T01:14:14.361Z,63.84
2022-12-18T01:14:47.652Z,63.37
2022-12-18T01:15:20.892Z,62.59
2022-12-18T01:15:53.994Z,61.94
2022-12-18T01:16:28.126Z,61.42
2022-12-18T01:17:03.844Z,60.50
2022-12-18T01:17:36.918Z,60.13
2022-12-18T01:18:09.924Z,59.24
2022-12-18T01:18:43.080Z,57.38
2022-12-18T01:19:16.264Z,55.49
2022-12-18T01:19:49.484Z,52.77
2022-12-18T01:20:22.761Z,50.73
2022-12-18T01:20:55.699Z,49.63
2022-12-18T01:21:28.874Z,48.73
2022-12-18T01:22:01.894Z,48.41
2022-12-18T01:22:35.091Z,47.34
2022-12-18T01:23:08.163Z,47.06
2022-12-18T01:23:41.601Z,47.15
2022-12-18T01:24:14.904Z,47.16
2022-12-18T01:24:48.259Z,48.89
2022-12-18T01:25:21.766Z,49.77
2022-12-18T01:25:54.781Z,48.70
2022-12-18T01:26:30.781Z,49.66
2022-12-18T01:27:03.966Z,49.03
2022-12-18T01:27:37.177Z,49.02
2022-12-18T01:28:10.125Z,49.12
2022-12-18T01:28:43.420Z,50.50
2022-12-18T01:29:16.502Z,51.96
2022-12-18T01:29:49.723Z,53.75
2022-12-18T01:30:22.881Z,54.29
2022-12-18T01:30:56.180Z,56.72
2022-12-18T01:31:29.434Z,55.44
2022-12-18T01:32:02.616Z,53.70
2022-12-18T01:32:36.071Z,53.26
2022-12-18T01:33:09.051Z,53.00
2022-12-18T01:33:42.138Z,53.10
2022-12-18T01:34:15.495Z,52.55
2022-12-18T01:34:48.790Z,53.25
2022-12-18T01:35:21.822Z,56.65
2022-12-18T01:35:54.964Z,58.10
2022-12-18T01:36:28.031Z,58.31
2022-12-18T01:37:01.602Z,59.08
2022-12-18T01:37:34.527Z,59.38
2022-12-18T01:38:07.639Z,57.22
2022-12-18T01:38:40.644Z,56.34
2022-12-18T01:39:13.758Z,55.31
2022-12-18T01:39:46.905Z,54.53
2022-12-18T01:40:20.061Z,54.53
2022-12-18T01:40:53.060Z,54.20
2022-12-18T01:41:26.204Z,54.66
2022-12-18T01:42:05.665Z,55.54
2022-12-18T01:42:38.754Z,57.29
2022-12-18T01:43:12.029Z,58.38
2022-12-18T01:43:44.968Z,57.24
2022-12-18T01:44:18.203Z,56.25
2022-12-18T01:44:51.355Z,55.66
2022-12-18T01:45:24.685Z,56.00
2022-12-18T01:45:57.677Z,58.28
2022-12-18T01:46:30.777Z,61.58
2022-12-18T01:47:04.200Z,61.02
2022-12-18T01:47:37.397Z,59.54
2022-12-18T01:48:10.527Z,59.88
2022-12-18T01:48:43.628Z,59.76
2022-12-18T01:49:16.764Z,62.29
2022-12-18T01:49:49.786Z,61.78
2022-12-18T01:50:22.867Z,62.00
2022-12-18T01:50:55.850Z,64.02
2022-12-18T01:51:28.904Z,66.40
2022-12-18T01:52:01.954Z,68.24
2022-12-18T01:52:35.007Z,70.06
2022-12-18T01:53:08.086Z,71.30
2022-12-18T01:53:41.188Z,71.60
2022-12-18T01:54:14.338Z,71.97
2022-12-18T01:54:47.618Z,72.02
2022-12-18T01:55:20.644Z,71.68
2022-12-18T01:55:53.588Z,71.28
2022-12-18T01:56:26.589Z,70.97
2022-12-18T01:56:59.607Z,71.45
2022-12-18T01:57:32.707Z,71.57
2022-12-18T01:58:05.884Z,71.54
2022-12-18T01:58:39.029Z,70.69
2022-12-18T01:59:11.977Z,69.78
2022-12-18T01:59:44.949Z,67.81
2022-12-18T02:00:17.972Z,66.03
2022-12-18T02:00:51.240Z,66.87
2022-12-18T02:01:24.323Z,67.04
2022-12-18T02:01:57.477Z,66.36
2022-12-18T02:02:30.869Z,65.32
2022-12-18T02:03:04.119Z,65.07
2022-12-18T02:03:37.603Z,64.65
2022-12-18T02:04:10.903Z,64.09
2022-12-18T02:04:49.207Z,63.69
2022-12-18T02:05:22.686Z,63.06
2022-12-18T02:05:56.813Z,62.92
2022-12-18T02:06:29.951Z,62.75
2022-12-18T02:07:03.010Z,62.42
2022-12-18T02:07:35.951Z,61.97
2022-12-18T02:08:08.807Z,61.86
2022-12-18T02:08:41.883Z,61.77
2022-12-18T02:09:14.788Z,61.49
2022-12-18T02:09:47.675Z,61.06
2022-12-18T02:10:20.843Z,60.55
2022-12-18T02:10:53.926Z,60.29
2022-12-18T02:11:27.042Z,60.09
2022-12-18T02:12:00.048Z,60.23
2022-12-18T02:12:33.051Z,60.13
2022-12-18T02:13:06.064Z,60.18
2022-12-18T02:13:39.478Z,60.06
2022-12-18T02:14:12.700Z,59.92
2022-12-18T02:14:45.584Z,59.61
2022-12-18T02:15:18.658Z,58.93
2022-12-18T02:15:51.700Z,57.48
2022-12-18T02:16:24.864Z,55.35
2022-12-18T02:16:58.459Z,52.93
2022-12-18T02:17:31.453Z,51.32
2022-12-18T02:18:04.502Z,50.78
2022-12-18T02:18:37.690Z,49.39
2022-12-18T02:19:10.683Z,48.71
2022-12-18T02:19:43.772Z,48.43
2022-12-18T02:20:16.701Z,48.44
2022-12-18T02:20:49.842Z,48.76
2022-12-18T02:21:22.851Z,50.84
2022-12-18T02:21:55.844Z,51.22
2022-12-18T02:22:28.956Z,50.30
2022-12-18T02:23:01.976Z,50.16
2022-12-18T02:23:35.082Z,50.53
2022-12-18T02:24:08.338Z,53.16
2022-12-18T02:24:41.279Z,55.23
2022-12-18T02:25:14.271Z,52.60
2022-12-18T02:25:47.321Z,52.05
2022-12-18T02:26:20.351Z,53.72
2022-12-18T02:26:53.290Z,53.07
2022-12-18T02:27:26.220Z,53.12
2022-12-18T02:27:59.264Z,53.92
2022-12-18T02:28:32.285Z,54.47
2022-12-18T02:29:05.362Z,57.37
2022-12-18T02:29:38.412Z,58.34
2022-12-18T02:30:11.402Z,58.59
2022-12-18T02:30:44.358Z,57.03
2022-12-18T02:31:17.533Z,58.35
2022-12-18T02:31:50.632Z,60.56
2022-12-18T02:32:23.825Z,60.55
2022-12-18T02:32:56.924Z,59.37
2022-12-18T02:33:30.022Z,59.76
2022-12-18T02:34:03.184Z,60.34
2022-12-18T02:34:36.370Z,59.65
2022-12-18T02:35:09.405Z,58.66
2022-12-18T02:35:42.441Z,59.40
2022-12-18T02:36:16.142Z,61.38
2022-12-18T02:36:49.183Z,62.06
2022-12-18T02:37:22.417Z,62.05
2022-12-18T02:37:55.511Z,62.74
2022-12-18T02:38:28.699Z,65.09
2022-12-18T02:39:01.786Z,66.47
2022-12-18T02:39:34.644Z,67.74
2022-12-18T02:40:07.560Z,68.63
2022-12-18T02:40:40.617Z,69.54
2022-12-18T02:41:13.513Z,69.98
2022-12-18T02:41:46.459Z,69.39
2022-12-18T02:42:19.474Z,69.99
2022-12-18T02:42:52.524Z,69.95
2022-12-18T02:43:25.392Z,70.11
2022-12-18T02:43:58.472Z,68.93
2022-12-18T02:44:31.483Z,69.02
2022-12-18T02:45:04.589Z,68.67
2022-12-18T02:45:37.596Z,68.26
2022-12-18T02:46:10.704Z,67.59
2022-12-18T02:46:43.615Z,66.80
2022-12-18T02:47:16.766Z,66.54
2022-12-18T02:47:49.758Z,63.87
2022-12-18T02:48:22.724Z,60.51
2022-12-18T02:48:55.723Z,61.52
2022-12-18T02:49:29.374Z,61.99
2022-12-18T02:50:03.513Z,62.59
2022-12-18T02:50:36.475Z,63.08
2022-12-18T02:51:09.515Z,63.39
2022-12-18T02:51:42.465Z,63.62
2022-12-18T02:52:15.425Z,63.57
2022-12-18T02:52:48.287Z,63.27
2022-12-18T02:53:21.104Z,62.07
2022-12-18T02:53:54.284Z,62.26
2022-12-18T02:54:27.509Z,61.91
2022-12-18T02:55:00.635Z,61.80
2022-12-18T02:55:33.947Z,61.48
2022-12-18T02:56:06.932Z,60.98
2022-12-18T02:56:39.995Z,59.59
2022-12-18T02:57:13.192Z,59.81
2022-12-18T02:57:46.196Z,59.83
2022-12-18T02:58:19.388Z,59.69
2022-12-18T02:58:52.379Z,59.52
2022-12-18T02:59:25.400Z,59.24
2022-12-18T02:59:58.522Z,58.04
2022-12-18T03:00:31.863Z,55.83
2022-12-18T03:01:05.249Z,53.65
2022-12-18T03:01:38.426Z,51.51
2022-12-18T03:02:11.585Z,49.92
2022-12-18T03:02:45.492Z,48.71
2022-12-18T03:03:18.916Z,48.31
2022-12-18T03:03:53.235Z,48.93
2022-12-18T03:04:26.398Z,48.72
2022-12-18T03:04:59.330Z,48.85
2022-12-18T03:05:32.523Z,48.75
2022-12-18T03:06:05.527Z,51.63
2022-12-18T03:06:38.531Z,49.58
2022-12-18T03:07:11.556Z,49.50
2022-12-18T03:07:44.540Z,48.60
2022-12-18T03:08:17.738Z,47.95
2022-12-18T03:08:50.709Z,48.37
2022-12-18T03:09:23.851Z,49.16
2022-12-18T03:09:56.878Z,49.82
2022-12-18T03:10:29.781Z,52.17
2022-12-18T03:11:02.780Z,51.68
2022-12-18T03:11:56.176Z,53.59
2022-12-18T03:12:29.247Z,54.88
2022-12-18T03:13:02.430Z,52.63
2022-12-18T03:13:35.600Z,54.28
2022-12-18T03:14:08.778Z,56.85
2022-12-18T03:14:41.954Z,59.53
2022-12-18T03:15:17.840Z,60.05
2022-12-18T03:15:51.169Z,59.49
2022-12-18T03:16:24.235Z,58.05
2022-12-18T03:16:57.631Z,56.64
2022-12-18T03:17:30.758Z,57.97
2022-12-18T03:18:03.852Z,58.98
2022-12-18T03:18:36.946Z,59.67
2022-12-18T03:19:10.232Z,60.74
2022-12-18T03:19:43.294Z,60.71
2022-12-18T03:20:16.259Z,58.62
2022-12-18T03:20:49.267Z,57.82
2022-12-18T03:21:22.403Z,56.81
2022-12-18T03:21:55.593Z,56.65
2022-12-18T03:22:28.741Z,56.70
2022-12-18T03:23:01.842Z,58.40
2022-12-18T03:23:35.304Z,59.53
2022-12-18T03:24:08.262Z,57.99
2022-12-18T03:24:41.534Z,58.73
2022-12-18T03:25:14.640Z,60.15
2022-12-18T03:25:47.740Z,59.40
2022-12-18T03:26:20.703Z,59.93
2022-12-18T03:26:53.980Z,60.34
2022-12-18T03:27:27.421Z,63.53
2022-12-18T03:28:01.067Z,63.77
2022-12-18T03:28:34.280Z,64.21
2022-12-18T03:29:07.471Z,66.03
2022-12-18T03:29:40.899Z,67.53
2022-12-18T03:30:14.052Z,69.34
2022-12-18T03:30:47.183Z,70.80
2022-12-18T03:31:20.485Z,70.93
2022-12-18T03:31:53.618Z,71.82
2022-12-18T03:32:26.672Z,70.75
2022-12-18T03:33:00.553Z,70.99
2022-12-18T03:33:33.967Z,71.29
2022-12-18T03:34:06.936Z,71.25
2022-12-18T03:34:40.027Z,71.07
2022-12-18T03:35:13.327Z,70.63
2022-12-18T03:35:46.233Z,70.49
2022-12-18T03:36:19.433Z,70.38
2022-12-18T03:36:52.327Z,69.99
2022-12-18T03:37:25.728Z,69.38
2022-12-18T03:37:58.754Z,68.92
2022-12-18T03:38:31.795Z,68.54
2022-12-18T03:39:04.687Z,68.03
2022-12-18T03:39:37.555Z,67.58
2022-12-18T03:40:10.623Z,67.05
2022-12-18T03:40:44.150Z,66.28
2022-12-18T03:41:17.470Z,65.64
2022-12-18T03:41:50.892Z,65.12
2022-12-18T03:42:24.145Z,64.45
2022-12-18T03:42:57.246Z,64.14
2022-12-18T03:43:30.228Z,63.81
2022-12-18T03:44:03.366Z,63.22
2022-12-18T03:44:36.516Z,62.58
2022-12-18T03:45:09.459Z,61.91
2022-12-18T03:45:42.591Z,61.69
2022-12-18T03:46:15.734Z,61.48
2022-12-18T03:46:48.777Z,61.44
2022-12-18T03:47:21.797Z,61.82
2022-12-18T03:47:54.834Z,62.06
2022-12-18T03:48:28.036Z,61.80
2022-12-18T03:49:01.253Z,61.34
2022-12-18T03:49:34.343Z,61.30
2022-12-18T03:50:12.496Z,61.13
2022-12-18T03:50:45.751Z,60.18
2022-12-18T03:51:18.818Z,59.38
2022-12-18T03:51:51.864Z,58.49
2022-12-18T03:52:24.890Z,56.80
2022-12-18T03:52:58.205Z,54.61
2022-12-18T03:53:31.369Z,52.81
2022-12-18T03:54:04.350Z,51.35
2022-12-18T03:54:37.316Z,50.27
2022-12-18T03:55:10.146Z,49.66
2022-12-18T03:55:43.193Z,50.87
2022-12-18T03:56:16.360Z,50.68
2022-12-18T03:56:49.383Z,49.57
2022-12-18T03:57:22.464Z,49.00
2022-12-18T03:57:55.447Z,48.38
2022-12-18T03:58:28.406Z,49.13
2022-12-18T03:59:01.826Z,48.50
2022-12-18T03:59:35.142Z,48.74
2022-12-18T04:00:08.272Z,49.22
2022-12-18T04:00:41.441Z,49.15
2022-12-18T04:01:14.779Z,49.58
2022-12-18T04:01:48.118Z,50.53
2022-12-18T04:02:21.208Z,50.99
2022-12-18T04:02:54.242Z,49.98
2022-12-18T04:03:27.452Z,49.44
2022-12-18T04:04:00.488Z,49.42
2022-12-18T04:04:33.594Z,49.08
2022-12-18T04:05:06.536Z,49.22
2022-12-18T04:05:39.539Z,49.49
2022-12-18T04:06:12.442Z,48.77
2022-12-18T04:06:45.631Z,49.74
2022-12-18T04:07:18.596Z,50.79
2022-12-18T04:07:51.733Z,49.96
2022-12-18T04:08:24.621Z,49.66
2022-12-18T04:08:57.629Z,50.47
2022-12-18T04:09:30.708Z,50.52
2022-12-18T04:10:04.204Z,49.95
2022-12-18T04:10:37.276Z,50.05
2022-12-18T04:11:10.452Z,51.59
2022-12-18T04:11:45.073Z,51.69
2022-12-18T04:12:18.481Z,51.72
2022-12-18T04:12:51.627Z,53.88
2022-12-18T04:13:24.541Z,54.99
2022-12-18T04:13:58.551Z,55.30
2022-12-18T04:14:31.681Z,54.02
2022-12-18T04:15:04.723Z,52.75
2022-12-18T04:15:37.825Z,52.58
2022-12-18T04:16:10.907Z,53.18
2022-12-18T04:16:43.938Z,54.25
2022-12-18T04:17:17.414Z,55.98
2022-12-18T04:17:50.506Z,60.26
2022-12-18T04:18:23.496Z,62.42
2022-12-18T04:18:56.613Z,60.69
2022-12-18T04:19:29.655Z,60.92
2022-12-18T04:20:02.650Z,62.89
2022-12-18T04:20:35.773Z,65.00
2022-12-18T04:21:08.919Z,66.62
2022-12-18T04:21:41.964Z,67.90
2022-12-18T04:22:14.996Z,68.64
2022-12-18T04:22:48.106Z,69.26
2022-12-18T04:23:21.093Z,69.80
2022-12-18T04:23:54.132Z,69.95
2022-12-18T04:24:27.756Z,69.56
2022-12-18T04:25:01.487Z,68.64
2022-12-18T04:25:34.678Z,68.08
2022-12-18T04:26:07.807Z,67.39
2022-12-18T04:26:40.959Z,66.60
2022-12-18T04:27:14.158Z,65.97
2022-12-18T04:27:47.365Z,65.43
2022-12-18T04:28:20.486Z,64.97
2022-12-18T04:28:54.132Z,64.50
2022-12-18T04:29:27.360Z,64.34
2022-12-18T04:30:00.647Z,63.98
2022-12-18T04:30:34.018Z,63.56
2022-12-18T04:31:07.536Z,63.01
2022-12-18T04:31:40.871Z,62.31
2022-12-18T04:32:14.124Z,61.68
2022-12-18T04:32:52.008Z,61.63
2022-12-18T04:33:25.424Z,63.25
2022-12-18T04:33:58.561Z,64.67
2022-12-18T04:34:31.799Z,65.54
2022-12-18T04:35:05.447Z,66.10
2022-12-18T04:35:38.391Z,66.32
2022-12-18T04:36:13.515Z,66.37
2022-12-18T04:36:46.594Z,66.19
2022-12-18T04:37:19.568Z,66.18
2022-12-18T04:37:52.588Z,65.35
2022-12-18T04:38:25.772Z,64.66
2022-12-18T04:38:58.762Z,64.25
2022-12-18T04:39:31.847Z,63.83
2022-12-18T04:40:04.862Z,62.98
2022-12-18T04:40:37.865Z,61.97
2022-12-18T04:41:10.816Z,61.53
2022-12-18T04:41:43.675Z,61.04
2022-12-18T04:42:16.755Z,60.58
2022-12-18T04:42:49.810Z,59.42
2022-12-18T04:43:22.949Z,56.25
2022-12-18T04:43:56.120Z,55.45
2022-12-18T04:44:29.412Z,53.87
2022-12-18T04:45:02.641Z,52.43
2022-12-18T04:45:35.802Z,51.85
2022-12-18T04:46:09.049Z,52.11
2022-12-18T04:46:42.169Z,51.56
2022-12-18T04:47:15.299Z,50.88
2022-12-18T04:47:48.543Z,50.19
2022-12-18T04:48:21.573Z,50.25
2022-12-18T04:48:54.725Z,49.48
2022-12-18T04:49:28.006Z,49.60
2022-12-18T04:50:01.337Z,52.19
2022-12-18T04:50:34.502Z,51.22
2022-12-18T04:51:07.878Z,50.23
2022-12-18T04:51:40.918Z,50.18
2022-12-18T04:52:13.804Z,49.44
2022-12-18T04:52:46.774Z,50.15
2022-12-18T04:53:20.008Z,55.41
2022-12-18T04:53:53.168Z,54.19
2022-12-18T04:54:26.863Z,54.04
2022-12-18T04:55:00.027Z,55.88
2022-12-18T04:55:33.201Z,53.88
2022-12-18T04:56:06.197Z,53.00
2022-12-18T04:56:39.252Z,57.37
2022-12-18T04:57:12.214Z,55.39
2022-12-18T04:57:45.271Z,55.10
2022-12-18T04:58:18.352Z,56.10
2022-12-18T04:58:51.471Z,55.12
2022-12-18T04:59:24.578Z,56.77
2022-12-18T04:59:57.665Z,58.55
2022-12-18T05:00:30.687Z,58.79
2022-12-18T05:01:04.115Z,59.64
2022-12-18T05:01:37.324Z,61.32
2022-12-18T05:02:10.463Z,58.64
2022-12-18T05:02:43.775Z,57.37
2022-12-18T05:03:17.219Z,58.87
2022-12-18T05:03:50.334Z,60.12
2022-12-18T05:04:23.247Z,59.70
2022-12-18T05:04:56.266Z,58.38
2022-12-18T05:05:29.238Z,57.35
2022-12-18T05:06:02.172Z,56.89
2022-12-18T05:06:35.251Z,57.01
2022-12-18T05:07:08.296Z,57.70
2022-12-18T05:07:41.128Z,59.31
2022-12-18T05:08:14.542Z,58.81
2022-12-18T05:08:47.809Z,60.23
2022-12-18T05:09:20.896Z,64.18
2022-12-18T05:09:53.857Z,64.21
2022-12-18T05:10:26.771Z,65.49
2022-12-18T05:10:59.925Z,67.13
2022-12-18T05:11:33.015Z,68.92
2022-12-18T05:12:06.043Z,69.99
2022-12-18T05:13:00.058Z,70.43
2022-12-18T05:13:34.367Z,71.69
2022-12-18T05:14:07.485Z,72.15
2022-12-18T05:14:40.417Z,72.11
2022-12-18T05:15:13.357Z,71.75
2022-12-18T05:15:46.442Z,71.00
2022-12-18T05:16:19.465Z,70.32
2022-12-18T05:16:55.723Z,69.72
2022-12-18T05:17:31.005Z,69.03
2022-12-18T05:18:04.152Z,68.33
2022-12-18T05:18:37.212Z,67.72
2022-12-18T05:19:10.294Z,66.77
2022-12-18T05:19:43.576Z,64.99
2022-12-18T05:20:16.614Z,65.34
2022-12-18T05:20:49.797Z,65.30
2022-12-18T05:21:22.782Z,64.75
2022-12-18T05:21:55.931Z,63.82
2022-12-18T05:22:28.994Z,62.90
2022-12-18T05:23:02.259Z,62.67
2022-12-18T05:23:36.048Z,62.10
2022-12-18T05:24:09.373Z,61.33
2022-12-18T05:24:42.425Z,60.78
2022-12-18T05:25:15.369Z,61.44
2022-12-18T05:25:48.409Z,62.75
2022-12-18T05:26:21.586Z,63.72
2022-12-18T05:26:54.567Z,63.84
2022-12-18T05:27:27.659Z,62.75
2022-12-18T05:28:00.840Z,61.31
2022-12-18T05:28:33.850Z,59.96
2022-12-18T05:29:06.769Z,60.37
2022-12-18T05:29:39.748Z,61.15
2022-12-18T05:30:12.823Z,61.93
2022-12-18T05:30:46.102Z,62.06
2022-12-18T05:31:19.283Z,60.90
2022-12-18T05:31:52.442Z,59.47
2022-12-18T05:32:25.711Z,58.03
2022-12-18T05:32:59.022Z,56.94
2022-12-18T05:33:32.141Z,55.42
2022-12-18T05:34:05.502Z,54.02
2022-12-18T05:34:38.811Z,53.24
2022-12-18T05:35:11.863Z,52.23
2022-12-18T05:35:44.796Z,51.89
2022-12-18T05:36:17.969Z,51.35
2022-12-18T05:36:51.432Z,50.92
2022-12-18T05:37:24.459Z,52.87
2022-12-18T05:37:57.441Z,51.44
2022-12-18T05:38:30.728Z,50.74
2022-12-18T05:39:04.002Z,50.91
2022-12-18T05:39:37.496Z,50.72
2022-12-18T05:40:10.481Z,50.34
2022-12-18T05:40:43.899Z,50.45
2022-12-18T05:41:17.346Z,50.40
2022-12-18T05:41:50.473Z,50.33
2022-12-18T05:42:23.495Z,50.33
2022-12-18T05:42:56.606Z,50.14
2022-12-18T05:43:30.108Z,52.10
2022-12-18T05:44:03.321Z,53.41
2022-12-18T05:44:36.387Z,51.87
2022-12-18T05:45:09.353Z,51.50
2022-12-18T05:45:42.503Z,51.96
2022-12-18T05:46:15.931Z,55.26
2022-12-18T05:46:49.154Z,55.62
2022-12-18T05:47:22.190Z,54.74
2022-12-18T05:47:55.155Z,53.86
2022-12-18T05:48:29.084Z,55.04
2022-12-18T05:49:05.135Z,58.40
2022-12-18T05:49:38.302Z,61.82
2022-12-18T05:50:11.433Z,61.44
2022-12-18T05:50:48.904Z,62.09
2022-12-18T05:51:22.175Z,61.28
2022-12-18T05:51:55.367Z,62.78
2022-12-18T05:52:28.475Z,63.73
2022-12-18T05:53:01.711Z,64.65
2022-12-18T05:53:34.796Z,66.41
2022-12-18T05:54:07.781Z,67.84
2022-12-18T05:54:40.999Z,69.17
2022-12-18T05:55:14.077Z,69.29
2022-12-18T05:55:47.254Z,70.10
2022-12-18T05:56:20.284Z,70.31
2022-12-18T05:56:53.733Z,70.49
2022-12-18T05:57:26.661Z,69.98
2022-12-18T05:58:00.292Z,69.38
2022-12-18T05:58:33.404Z,68.62
2022-12-18T05:59:06.597Z,64.89
2022-12-18T05:59:39.575Z,64.36
2022-12-18T06:00:12.511Z,63.12
2022-12-18T06:00:45.525Z,64.02
2022-12-18T06:01:18.679Z,64.15
2022-12-18T06:01:51.871Z,63.65
2022-12-18T06:02:25.201Z,63.17
2022-12-18T06:02:58.587Z,63.98
2022-12-18T06:03:34.054Z,63.56
2022-12-18T06:04:07.421Z,63.14
2022-12-18T06:04:40.477Z,63.59
2022-12-18T06:05:13.588Z,63.75
2022-12-18T06:05:46.709Z,62.95
2022-12-18T06:06:19.893Z,63.30
2022-12-18T06:06:53.112Z,61.75
2022-12-18T06:07:26.207Z,59.15
2022-12-18T06:07:59.504Z,58.64
2022-12-18T06:08:32.820Z,55.42
2022-12-18T06:09:10.847Z,53.75
2022-12-18T06:09:43.959Z,52.56
2022-12-18T06:10:17.014Z,51.56
2022-12-18T06:10:50.212Z,51.61
2022-12-18T06:11:23.216Z,51.73
2022-12-18T06:11:56.357Z,50.44
2022-12-18T06:12:29.638Z,49.99
2022-12-18T06:13:02.954Z,50.52
2022-12-18T06:13:35.946Z,50.45
2022-12-18T06:14:09.142Z,51.01
2022-12-18T06:14:42.116Z,52.15
2022-12-18T06:15:15.128Z,51.11
2022-12-18T06:15:49.284Z,52.54
2022-12-18T06:16:22.520Z,51.99
2022-12-18T06:16:55.599Z,53.51
2022-12-18T06:17:28.680Z,51.79
2022-12-18T06:18:01.854Z,50.58
2022-12-18T06:18:35.034Z,50.25
2022-12-18T06:19:08.260Z,53.23
2022-12-18T06:19:48.886Z,54.07
2022-12-18T06:20:22.323Z,51.71
2022-12-18T06:20:55.448Z,50.51
2022-12-18T06:21:28.534Z,50.98
2022-12-18T06:22:01.586Z,51.57
2022-12-18T06:22:34.858Z,50.92
2022-12-18T06:23:07.981Z,50.71
2022-12-18T06:23:41.232Z,51.26
2022-12-18T06:24:14.605Z,52.56
2022-12-18T06:24:47.712Z,55.99
2022-12-18T06:25:20.808Z,54.05
2022-12-18T06:25:53.944Z,54.22
2022-12-18T06:26:28.545Z,55.68
2022-12-18T06:27:01.859Z,54.17
2022-12-18T06:27:37.864Z,54.61
2022-12-18T06:28:11.301Z,55.73
2022-12-18T06:28:44.230Z,55.17
2022-12-18T06:29:17.329Z,54.59
2022-12-18T06:29:50.472Z,58.86
2022-12-18T06:30:23.605Z,60.73
2022-12-18T06:30:56.852Z,59.54
2022-12-18T06:31:30.078Z,59.14
2022-12-18T06:32:04.052Z,59.03
2022-12-18T06:32:37.206Z,59.29
2022-12-18T06:33:10.252Z,61.94
2022-12-18T06:33:43.572Z,62.25
2022-12-18T06:34:16.773Z,64.11
2022-12-18T06:34:49.872Z,62.46
2022-12-18T06:35:23.014Z,62.44
2022-12-18T06:36:00.930Z,63.87
2022-12-18T06:36:34.544Z,65.58
2022-12-18T06:37:07.787Z,66.88
2022-12-18T06:37:41.065Z,68.79
2022-12-18T06:38:14.177Z,70.12
2022-12-18T06:38:47.207Z,71.04
2022-12-18T06:39:20.399Z,71.13
2022-12-18T06:39:53.534Z,72.15
2022-12-18T06:40:26.640Z,71.55
2022-12-18T06:40:59.762Z,69.87
2022-12-18T06:41:32.997Z,70.88
2022-12-18T06:42:06.041Z,70.41
2022-12-18T06:42:39.211Z,68.93
2022-12-18T06:43:12.332Z,69.34
2022-12-18T06:43:45.533Z,69.66
2022-12-18T06:44:18.699Z,69.55
2022-12-18T06:44:51.764Z,69.28
2022-12-18T06:45:25.487Z,69.05
2022-12-18T06:45:58.789Z,68.54
2022-12-18T06:46:33.386Z,67.98
2022-12-18T06:47:06.390Z,67.08
2022-12-18T06:47:39.407Z,66.04
2022-12-18T06:48:12.329Z,61.99
2022-12-18T06:48:45.244Z,62.12
2022-12-18T06:49:18.503Z,62.21
2022-12-18T06:49:51.662Z,62.52
2022-12-18T06:50:24.728Z,62.86
2022-12-18T06:50:58.020Z,63.07
2022-12-18T06:51:31.161Z,62.95
2022-12-18T06:52:04.209Z,62.61
2022-12-18T06:52:38.027Z,62.54
2022-12-18T06:53:11.161Z,62.43
2022-12-18T06:53:44.212Z,61.52
2022-12-18T06:54:17.202Z,58.93
2022-12-18T06:54:50.322Z,57.76
2022-12-18T06:55:23.298Z,55.48
2022-12-18T06:55:56.215Z,54.25
2022-12-18T06:56:29.365Z,52.65
2022-12-18T06:57:02.496Z,51.60
2022-12-18T06:57:35.612Z,50.29
2022-12-18T06:58:08.511Z,49.77
2022-12-18T06:58:43.705Z,50.57
2022-12-18T06:59:16.908Z,51.83
2022-12-18T06:59:49.974Z,52.20
2022-12-18T07:00:23.056Z,50.97
2022-12-18T07:00:56.117Z,51.09
2022-12-18T07:01:29.411Z,51.93
2022-12-18T07:02:02.784Z,50.91
2022-12-18T07:02:36.351Z,50.20
2022-12-18T07:03:09.644Z,49.83
2022-12-18T07:03:43.358Z,50.53
2022-12-18T07:04:16.988Z,50.74
2022-12-18T07:04:50.133Z,49.48
2022-12-18T07:05:23.511Z,48.94
2022-12-18T07:05:56.806Z,49.39
2022-12-18T07:06:30.265Z,48.88
2022-12-18T07:07:03.280Z,52.27
2022-12-18T07:07:36.257Z,53.15
2022-12-18T07:08:09.428Z,52.22
2022-12-18T07:08:43.413Z,54.69
2022-12-18T07:09:16.600Z,57.51
2022-12-18T07:09:50.565Z,59.67
2022-12-18T07:10:23.525Z,58.95